Terminal Aerodrome Forecast
Issued by NWS Wilmington, NC

Home | Current Version | Previous Version | Text Only | Print | Product List | Glossary On
Versions: 1 2 3 4 5 6 7 8 9 10 11 12 13 14 15 16 17 18 19 20 21 22
000
FTUS42 KILM 221757 CCB
TAFILM
TAF COR
KILM 221757Z 2218/2318 21010G16KT P6SM VCTS BKN030CB BKN045
      TEMPO 2218/2220 3SM SHRA SCT015 OVC030
     FM222300 21008KT P6SM BKN035 BKN060
     FM230200 21006KT P6SM -SHRA VCTS BKN020CB
     FM230900 20006KT P6SM -SHRA VCTS OVC010CB
     FM231700 21011G20KT P6SM -SHRA VCTS OVC025CB=

USA.gov is the U.S. government's official web portal to all federal, state and local government web resources and services.